createdAt,value
2022-10-23T00:01:51.843Z,27.13
2022-10-23T00:07:24.136Z,26.07
2022-10-23T00:10:05.541Z,25.87
2022-10-23T00:12:36.685Z,25.97
2022-10-23T00:15:11.914Z,25.80
2022-10-23T00:17:51.110Z,25.77
2022-10-23T00:20:38.606Z,27.57
2022-10-23T00:23:07.323Z,28.47
2022-10-23T00:25:52.517Z,26.40
2022-10-23T00:28:28.488Z,26.77
2022-10-23T00:30:59.459Z,26.67
2022-10-23T00:33:30.274Z,28.13
2022-10-23T00:36:06.397Z,26.93
2022-10-23T00:38:36.813Z,29.00
2022-10-23T00:41:18.540Z,26.90
2022-10-23T00:44:56.692Z,28.17
2022-10-23T00:47:25.632Z,27.37
2022-10-23T00:50:08.718Z,29.70
2022-10-23T00:52:47.951Z,28.73
2022-10-23T00:55:19.186Z,30.03
2022-10-23T00:57:50.933Z,29.67
2022-10-23T01:00:31.620Z,29.87
2022-10-23T01:03:05.760Z,30.43
2022-10-23T01:05:50.714Z,30.53
2022-10-23T01:08:33.886Z,29.70
2022-10-23T01:11:16.737Z,29.57
2022-10-23T01:13:59.096Z,32.37
2022-10-23T01:16:38.954Z,30.30
2022-10-23T01:19:22.504Z,30.93
2022-10-23T01:22:01.316Z,30.47
2022-10-23T01:24:55.108Z,29.77
2022-10-23T01:30:17.009Z,32.63
2022-10-23T01:33:08.033Z,31.50
2022-10-23T01:35:47.502Z,32.27
2022-10-23T01:41:18.126Z,33.13
2022-10-23T01:43:57.682Z,32.60
2022-10-23T01:46:45.391Z,31.03
2022-10-23T01:49:23.610Z,30.90
2022-10-23T01:52:10.442Z,30.73
2022-10-23T01:54:43.598Z,30.57
2022-10-23T01:57:30.345Z,31.60
2022-10-23T02:00:23.523Z,31.67
2022-10-23T02:02:54.038Z,30.37
2022-10-23T02:05:33.259Z,30.70
2022-10-23T02:08:03.775Z,30.13
2022-10-23T02:10:43.194Z,31.17
2022-10-23T02:13:35.341Z,30.87
2022-10-23T02:16:39.849Z,28.57
2022-10-23T02:19:19.380Z,28.90
2022-10-23T02:24:52.038Z,29.37
2022-10-23T02:27:40.573Z,29.47
2022-10-23T02:30:12.099Z,30.83
2022-10-23T02:32:48.852Z,32.17
2022-10-23T02:36:02.296Z,31.17
2022-10-23T02:41:43.615Z,31.50
2022-10-23T02:44:38.234Z,30.13
2022-10-23T02:47:22.543Z,31.50
2022-10-23T02:50:07.327Z,29.57
2022-10-23T02:52:45.650Z,31.70
2022-10-23T02:55:31.052Z,32.33
2022-10-23T02:58:10.887Z,31.77
2022-10-23T03:00:45.342Z,30.97
2022-10-23T03:06:26.001Z,29.93
2022-10-23T03:11:45.755Z,29.43
2022-10-23T03:14:22.161Z,30.63
2022-10-23T03:17:03.364Z,30.67
2022-10-23T03:19:34.655Z,30.63
2022-10-23T03:22:12.149Z,30.23
2022-10-23T03:24:47.645Z,30.20
2022-10-23T03:27:17.467Z,28.13
2022-10-23T03:29:59.688Z,28.80
2022-10-23T03:32:46.146Z,28.63
2022-10-23T03:35:18.121Z,29.23
2022-10-23T03:37:57.742Z,29.93
2022-10-23T03:40:26.279Z,28.17
2022-10-23T03:42:55.979Z,28.17
2022-10-23T03:45:26.687Z,27.97
2022-10-23T03:47:58.526Z,28.50
2022-10-23T03:50:27.697Z,28.33
2022-10-23T03:52:57.477Z,29.80
2022-10-23T03:58:13.002Z,28.60
2022-10-23T04:03:22.577Z,28.07
2022-10-23T04:05:55.079Z,28.70
2022-10-23T04:08:25.095Z,28.83
2022-10-23T04:10:54.151Z,29.20
2022-10-23T04:13:22.790Z,29.47
2022-10-23T04:16:07.086Z,30.00
2022-10-23T04:18:52.358Z,29.13
2022-10-23T04:21:23.749Z,29.17
2022-10-23T04:24:00.178Z,29.83
2022-10-23T04:26:29.607Z,28.40
2022-10-23T04:29:03.130Z,29.53
2022-10-23T04:31:31.989Z,30.67
2022-10-23T04:34:02.582Z,29.93
2022-10-23T04:36:31.222Z,30.87
2022-10-23T04:39:02.234Z,30.10
2022-10-23T04:41:30.906Z,29.90
2022-10-23T04:44:03.436Z,31.90
2022-10-23T04:46:33.146Z,30.27
2022-10-23T04:54:46.259Z,28.93
2022-10-23T04:57:16.544Z,29.00
2022-10-23T04:59:51.879Z,30.20
2022-10-23T05:02:34.275Z,31.67
2022-10-23T05:05:06.505Z,30.13
2022-10-23T05:07:35.029Z,29.27
2022-10-23T05:10:11.305Z,29.70
2022-10-23T05:12:51.071Z,29.33
2022-10-23T05:15:20.804Z,30.63
2022-10-23T05:17:56.908Z,30.23
2022-10-23T05:20:31.555Z,29.90
2022-10-23T05:23:16.402Z,29.03
2022-10-23T05:25:47.976Z,30.97
2022-10-23T05:28:20.876Z,30.53
2022-10-23T05:30:50.161Z,30.93
2022-10-23T05:33:22.165Z,31.33
2022-10-23T05:35:50.516Z,31.23
2022-10-23T05:38:21.766Z,29.83
2022-10-23T05:40:55.042Z,31.03
2022-10-23T05:43:23.822Z,31.90
2022-10-23T05:48:53.019Z,31.53
2022-10-23T05:51:23.712Z,31.67
2022-10-23T05:53:54.465Z,31.50
2022-10-23T05:56:27.090Z,32.23
2022-10-23T05:59:02.791Z,31.73
2022-10-23T06:01:31.449Z,33.67
2022-10-23T06:04:00.948Z,32.73
2022-10-23T06:06:35.513Z,33.77
2022-10-23T06:09:04.889Z,32.63
2022-10-23T06:11:34.636Z,32.10
2022-10-23T06:14:04.062Z,32.90
2022-10-23T06:16:50.430Z,33.53
2022-10-23T06:19:24.169Z,32.87
2022-10-23T06:21:57.956Z,34.10
2022-10-23T06:24:29.661Z,34.50
2022-10-23T06:27:02.013Z,35.70
2022-10-23T06:29:37.465Z,34.10
2022-10-23T06:32:20.981Z,35.57
2022-10-23T06:34:54.988Z,34.43
2022-10-23T06:37:46.403Z,35.63
2022-10-23T06:40:16.518Z,35.53
2022-10-23T06:42:49.462Z,35.13
2022-10-23T06:45:25.742Z,35.00
2022-10-23T06:50:40.187Z,33.10
2022-10-23T06:53:12.360Z,34.80
2022-10-23T06:58:29.858Z,31.23
2022-10-23T07:01:02.912Z,31.20
2022-10-23T07:03:39.968Z,32.33
2022-10-23T07:06:17.635Z,30.60
2022-10-23T07:08:47.830Z,31.83
2022-10-23T07:11:22.337Z,30.03
2022-10-23T07:13:53.214Z,29.83
2022-10-23T07:19:14.260Z,29.00
2022-10-23T07:21:46.221Z,28.43
2022-10-23T07:24:15.713Z,28.70
2022-10-23T07:26:45.963Z,26.97
2022-10-23T07:29:49.071Z,28.90
2022-10-23T07:32:17.364Z,27.37
2022-10-23T07:34:45.799Z,26.73
2022-10-23T07:37:16.221Z,26.80
2022-10-23T07:39:44.501Z,26.87
2022-10-23T07:42:12.830Z,25.67
2022-10-23T07:44:43.156Z,26.03
2022-10-23T07:47:16.336Z,25.70
2022-10-23T07:49:44.851Z,26.27
2022-10-23T07:52:13.026Z,26.83
2022-10-23T07:54:41.402Z,27.37
2022-10-23T07:57:27.234Z,25.73
2022-10-23T07:59:56.921Z,26.17
2022-10-23T08:02:26.892Z,25.93
2022-10-23T08:04:55.188Z,24.13
2022-10-23T08:07:26.052Z,24.30
2022-10-23T08:09:54.434Z,24.23
2022-10-23T08:12:22.814Z,23.57
2022-10-23T08:15:18.215Z,22.57
2022-10-23T08:17:46.498Z,22.60
2022-10-23T08:20:14.839Z,23.00
2022-10-23T08:22:56.381Z,22.17
2022-10-23T08:25:25.121Z,21.60
2022-10-23T08:28:12.784Z,22.67
2022-10-23T08:30:54.142Z,20.20
2022-10-23T08:33:24.742Z,20.87
2022-10-23T08:35:57.006Z,19.50
2022-10-23T08:38:28.911Z,20.20
2022-10-23T08:41:02.837Z,19.10
2022-10-23T08:43:37.571Z,18.60
2022-10-23T08:46:13.451Z,19.87
2022-10-23T08:48:49.109Z,19.43
2022-10-23T08:51:35.066Z,19.10
2022-10-23T08:54:13.063Z,18.60
2022-10-23T08:56:44.537Z,18.23
2022-10-23T08:59:20.979Z,17.40
2022-10-23T09:01:58.900Z,18.10
2022-10-23T09:04:31.732Z,17.03
2022-10-23T09:07:22.666Z,16.20
2022-10-23T09:10:09.914Z,16.57
2022-10-23T09:12:55.241Z,15.90
2022-10-23T09:15:29.678Z,15.67
2022-10-23T09:20:55.961Z,14.30
2022-10-23T09:23:26.181Z,14.17
2022-10-23T09:25:57.240Z,14.90
2022-10-23T09:28:41.538Z,13.77
2022-10-23T09:31:13.068Z,14.60
2022-10-23T09:33:43.516Z,12.97
2022-10-23T09:36:23.568Z,13.23
2022-10-23T09:39:03.567Z,12.53
2022-10-23T09:41:37.300Z,12.07
2022-10-23T09:44:22.183Z,11.83
2022-10-23T09:46:53.647Z,11.70
2022-10-23T09:49:30.341Z,11.83
2022-10-23T09:52:04.801Z,10.93
2022-10-23T09:54:46.283Z,10.93
2022-10-23T09:57:28.050Z,11.13
2022-10-23T10:00:12.004Z,10.50
2022-10-23T10:03:03.811Z,10.43
2022-10-23T10:05:37.375Z,10.30
2022-10-23T10:08:15.476Z,9.53
2022-10-23T10:10:49.446Z,10.57
2022-10-23T10:14:21.620Z,9.37
2022-10-23T10:16:54.731Z,8.50
2022-10-23T10:19:38.297Z,9.60
2022-10-23T10:22:40.717Z,9.93
2022-10-23T10:25:28.790Z,8.47
2022-10-23T10:28:21.236Z,8.47
2022-10-23T10:31:02.725Z,8.67
2022-10-23T10:33:37.632Z,8.33
2022-10-23T10:36:21.227Z,7.90
2022-10-23T10:39:03.776Z,7.97
2022-10-23T10:41:56.338Z,8.47
2022-10-23T10:44:48.352Z,8.07
2022-10-23T10:47:28.779Z,7.70
2022-10-23T10:50:11.804Z,7.60
2022-10-23T10:52:49.368Z,6.90
2022-10-23T10:55:31.974Z,6.63
2022-10-23T10:58:20.478Z,6.80
2022-10-23T11:01:09.858Z,6.80
2022-10-23T11:03:44.090Z,6.50
2022-10-23T11:06:18.354Z,7.07
2022-10-23T11:08:57.188Z,6.40
2022-10-23T11:11:36.298Z,6.37
2022-10-23T11:14:05.064Z,6.70
2022-10-23T11:16:37.978Z,6.47
2022-10-23T11:19:23.771Z,6.17
2022-10-23T11:22:03.981Z,6.30
2022-10-23T11:25:37.491Z,6.47
2022-10-23T11:28:27.907Z,6.43
2022-10-23T11:31:12.121Z,5.50
2022-10-23T11:34:32.113Z,6.07
2022-10-23T11:37:07.197Z,5.97
2022-10-23T11:39:37.706Z,6.07
2022-10-23T11:42:31.956Z,5.87
2022-10-23T11:45:01.997Z,6.07
2022-10-23T11:47:55.718Z,5.53
2022-10-23T11:50:35.614Z,5.63
2022-10-23T11:53:15.647Z,6.40
2022-10-23T11:56:00.746Z,6.07
2022-10-23T11:58:51.594Z,5.73
2022-10-23T12:01:45.574Z,5.50
2022-10-23T12:04:25.807Z,5.70
2022-10-23T12:06:57.575Z,5.50
2022-10-23T12:09:37.576Z,5.53
2022-10-23T12:12:26.646Z,5.63
2022-10-23T12:14:55.958Z,5.50
2022-10-23T12:18:10.213Z,5.13
2022-10-23T12:20:57.430Z,5.93
2022-10-23T12:24:04.800Z,5.80
2022-10-23T12:26:50.768Z,5.83
2022-10-23T12:30:02.914Z,5.80
2022-10-23T12:33:29.455Z,6.20
2022-10-23T12:36:39.619Z,6.03
2022-10-23T12:39:36.357Z,5.13
2022-10-23T12:45:39.980Z,5.53
2022-10-23T12:48:26.830Z,5.33
2022-10-23T12:50:57.036Z,5.40
2022-10-23T12:56:10.206Z,5.60
2022-10-23T12:58:39.282Z,5.27
2022-10-23T13:01:23.375Z,5.27
2022-10-23T13:03:52.618Z,5.33
2022-10-23T13:06:26.130Z,5.10
2022-10-23T13:08:56.452Z,4.90
2022-10-23T13:11:26.229Z,5.00
2022-10-23T13:13:55.122Z,4.80
2022-10-23T13:16:26.666Z,4.90
2022-10-23T13:18:55.255Z,4.63
2022-10-23T13:21:30.261Z,4.80
2022-10-23T13:24:01.424Z,6.50
2022-10-23T13:26:45.540Z,5.63
2022-10-23T13:29:22.369Z,5.53
2022-10-23T13:31:51.463Z,5.27
2022-10-23T13:34:30.760Z,5.27
2022-10-23T13:37:04.203Z,4.90
2022-10-23T13:39:36.066Z,4.83
2022-10-23T13:42:17.732Z,5.07
2022-10-23T13:44:46.216Z,5.20
2022-10-23T13:47:23.067Z,5.10
2022-10-23T13:49:55.525Z,5.00
2022-10-23T13:52:29.125Z,4.80
2022-10-23T13:54:58.878Z,4.53
2022-10-23T13:57:35.375Z,6.00
2022-10-23T14:00:07.257Z,4.63
2022-10-23T14:02:35.760Z,4.90
2022-10-23T14:05:07.136Z,4.97
2022-10-23T14:07:35.554Z,5.30
2022-10-23T14:10:06.666Z,4.80
2022-10-23T14:12:42.202Z,4.93
2022-10-23T14:15:23.614Z,5.57
2022-10-23T14:17:56.580Z,5.40
2022-10-23T14:20:28.084Z,5.50
2022-10-23T14:23:07.785Z,4.73
2022-10-23T14:28:24.376Z,5.67
2022-10-23T14:30:52.679Z,5.77
2022-10-23T14:33:21.009Z,5.67
2022-10-23T14:35:55.798Z,5.03
2022-10-23T14:38:24.138Z,5.00
2022-10-23T14:41:25.310Z,5.00
2022-10-23T14:44:05.253Z,5.30
2022-10-23T14:46:35.655Z,4.23
2022-10-23T14:49:18.903Z,4.00
2022-10-23T14:51:55.387Z,4.30
2022-10-23T14:54:25.159Z,4.10
2022-10-23T14:56:54.910Z,4.00
2022-10-23T14:59:24.713Z,4.53
2022-10-23T15:04:36.717Z,5.30
2022-10-23T15:07:08.394Z,4.43
2022-10-23T15:09:40.128Z,4.70
2022-10-23T15:12:20.237Z,4.53
2022-10-23T15:14:54.823Z,4.60
2022-10-23T15:17:25.119Z,4.67
2022-10-23T15:19:53.515Z,4.60
2022-10-23T15:22:23.206Z,4.47
2022-10-23T15:24:54.093Z,4.80
2022-10-23T15:27:26.004Z,4.90
2022-10-23T15:30:02.767Z,4.10
2022-10-23T15:32:48.081Z,4.63
2022-10-23T15:35:16.778Z,4.70
2022-10-23T15:37:45.448Z,4.70
2022-10-23T15:40:14.619Z,4.40
2022-10-23T15:43:09.531Z,4.20
2022-10-23T15:45:43.045Z,4.60
2022-10-23T15:48:21.848Z,4.83
2022-10-23T15:50:50.335Z,4.87
2022-10-23T15:53:18.876Z,4.73
2022-10-23T15:55:48.735Z,4.73
2022-10-23T16:01:06.955Z,6.53
2022-10-23T16:03:41.119Z,4.40
2022-10-23T16:06:20.955Z,4.83
2022-10-23T16:08:50.217Z,4.60
2022-10-23T16:11:25.872Z,4.40
2022-10-23T16:14:21.791Z,4.70
2022-10-23T16:16:50.161Z,4.17
2022-10-23T16:19:18.799Z,4.27
2022-10-23T16:21:48.696Z,4.27
2022-10-23T16:24:20.448Z,4.83
2022-10-23T16:26:53.192Z,4.63
2022-10-23T16:29:24.418Z,5.33
2022-10-23T16:31:53.677Z,4.93
2022-10-23T16:34:22.673Z,4.70
2022-10-23T16:36:52.619Z,4.83
2022-10-23T16:39:21.804Z,4.70
2022-10-23T16:41:50.264Z,5.10
2022-10-23T16:44:18.656Z,4.87
2022-10-23T16:46:48.849Z,5.53
2022-10-23T16:49:17.524Z,4.70
2022-10-23T16:51:47.231Z,5.13
2022-10-23T16:54:21.949Z,4.97
2022-10-23T16:56:50.356Z,5.00
2022-10-23T16:59:18.851Z,4.83
2022-10-23T17:01:55.644Z,5.20
2022-10-23T17:04:47.903Z,5.33
2022-10-23T17:07:16.405Z,4.93
2022-10-23T17:09:46.597Z,4.83
2022-10-23T17:12:15.260Z,5.13
2022-10-23T17:15:00.418Z,4.73
2022-10-23T17:17:30.234Z,5.23
2022-10-23T17:19:59.004Z,4.73
2022-10-23T17:22:38.061Z,5.07
2022-10-23T17:25:08.168Z,5.10
2022-10-23T17:27:45.968Z,5.10
2022-10-23T17:30:17.985Z,4.87
2022-10-23T17:33:01.045Z,5.10
2022-10-23T17:35:32.659Z,5.13
2022-10-23T17:38:01.266Z,5.40
2022-10-23T17:40:32.980Z,5.70
2022-10-23T17:43:09.553Z,5.60
2022-10-23T17:45:39.652Z,6.20
2022-10-23T17:48:10.105Z,5.40
2022-10-23T17:50:38.489Z,5.60
2022-10-23T17:53:15.363Z,5.07
2022-10-23T17:55:48.757Z,5.17
2022-10-23T17:58:17.117Z,5.33
2022-10-23T18:00:45.591Z,5.00
2022-10-23T18:03:19.701Z,4.90
2022-10-23T18:05:53.611Z,4.80
2022-10-23T18:08:21.948Z,4.63
2022-10-23T18:10:50.416Z,4.60
2022-10-23T18:13:18.768Z,4.47
2022-10-23T18:15:47.153Z,4.60
2022-10-23T18:18:24.661Z,4.37
2022-10-23T18:20:55.915Z,4.13
2022-10-23T18:23:27.054Z,4.80
2022-10-23T18:25:55.616Z,4.87
2022-10-23T18:28:24.345Z,4.90
2022-10-23T18:30:59.637Z,4.03
2022-10-23T18:33:29.503Z,4.33
2022-10-23T18:36:09.829Z,4.77
2022-10-23T18:41:24.368Z,4.60
2022-10-23T18:43:53.659Z,5.10
2022-10-23T18:46:30.564Z,5.33
2022-10-23T18:49:15.366Z,4.97
2022-10-23T18:51:43.750Z,4.70
2022-10-23T18:54:21.396Z,4.60
2022-10-23T18:57:08.627Z,4.83
2022-10-23T18:59:57.163Z,4.97
2022-10-23T19:02:25.559Z,4.80
2022-10-23T19:04:55.569Z,4.90
2022-10-23T19:07:25.279Z,5.30
2022-10-23T19:09:53.938Z,5.70
2022-10-23T19:12:39.137Z,5.10
2022-10-23T19:15:20.408Z,4.53
2022-10-23T19:21:31.087Z,4.43
2022-10-23T19:24:03.852Z,5.00
2022-10-23T19:29:27.773Z,4.87
2022-10-23T19:31:56.296Z,4.37
2022-10-23T19:34:45.210Z,4.70
2022-10-23T19:37:30.091Z,4.80
2022-10-23T19:39:58.743Z,4.40
2022-10-23T19:42:31.890Z,4.60
2022-10-23T19:45:00.377Z,4.90
2022-10-23T19:50:15.214Z,4.70
2022-10-23T19:53:08.963Z,4.50
2022-10-23T19:55:44.742Z,5.00
2022-10-23T19:58:13.139Z,4.47
2022-10-23T20:00:43.971Z,4.23
2022-10-23T20:03:12.224Z,3.83
2022-10-23T20:05:53.969Z,4.80
2022-10-23T20:08:45.193Z,4.50
2022-10-23T20:11:20.399Z,3.90
2022-10-23T20:13:53.682Z,4.40
2022-10-23T20:16:27.988Z,4.47
2022-10-23T20:18:57.040Z,4.10
2022-10-23T20:21:26.730Z,4.50
2022-10-23T20:23:58.062Z,4.63
2022-10-23T20:26:29.598Z,4.73
2022-10-23T20:28:58.588Z,4.20
2022-10-23T20:31:39.566Z,4.47
2022-10-23T20:34:10.306Z,4.27
2022-10-23T20:36:45.621Z,4.10
2022-10-23T20:39:19.853Z,4.97
2022-10-23T20:41:49.619Z,4.10
2022-10-23T20:44:19.530Z,3.90
2022-10-23T20:46:48.897Z,3.87
2022-10-23T20:49:18.182Z,4.10
2022-10-23T20:51:48.087Z,3.70
2022-10-23T20:54:20.181Z,3.60
2022-10-23T20:56:48.648Z,3.50
2022-10-23T20:59:19.464Z,3.90
2022-10-23T21:01:51.301Z,3.80
2022-10-23T21:04:23.409Z,4.30
2022-10-23T21:07:08.950Z,3.80
2022-10-23T21:09:39.966Z,4.07
2022-10-23T21:12:08.761Z,3.57
2022-10-23T21:17:23.437Z,3.37
2022-10-23T21:19:51.741Z,3.20
2022-10-23T21:22:20.233Z,3.80
2022-10-23T21:24:57.091Z,3.90
2022-10-23T21:27:28.432Z,4.67
2022-10-23T21:29:57.029Z,4.37
2022-10-23T21:32:25.408Z,3.60
2022-10-23T21:34:55.256Z,3.97
2022-10-23T21:37:25.627Z,3.30
2022-10-23T21:39:55.656Z,3.67
2022-10-23T21:42:24.062Z,3.73
2022-10-23T21:44:52.490Z,4.30
2022-10-23T21:47:35.186Z,4.20
2022-10-23T21:50:03.786Z,4.33
2022-10-23T21:52:43.600Z,4.43
2022-10-23T21:55:14.134Z,4.23
2022-10-23T21:57:42.479Z,4.27
2022-10-23T22:00:15.856Z,3.90
2022-10-23T22:02:44.761Z,4.00
2022-10-23T22:05:13.168Z,3.83
2022-10-23T22:07:41.687Z,4.00
2022-10-23T22:10:10.494Z,3.60
2022-10-23T22:12:41.634Z,3.60
2022-10-23T22:15:11.242Z,4.00
2022-10-23T22:17:42.753Z,3.53
2022-10-23T22:20:12.329Z,3.90
2022-10-23T22:22:40.726Z,3.77
2022-10-23T22:25:25.772Z,3.77
2022-10-23T22:27:57.364Z,3.70
2022-10-23T22:30:28.216Z,3.70
2022-10-23T22:32:57.154Z,3.67
2022-10-23T22:35:25.757Z,3.70
2022-10-23T22:37:55.342Z,3.87
2022-10-23T22:40:23.597Z,3.67
2022-10-23T22:43:06.219Z,3.60
2022-10-23T22:45:43.123Z,3.90
2022-10-23T22:48:22.118Z,3.60
2022-10-23T22:50:50.422Z,3.37
2022-10-23T22:53:24.957Z,3.77
2022-10-23T22:55:53.910Z,4.03
2022-10-23T22:58:22.462Z,3.47
2022-10-23T23:03:52.283Z,3.77
2022-10-23T23:06:26.062Z,3.20
2022-10-23T23:09:01.147Z,3.60
2022-10-23T23:11:37.104Z,3.80
2022-10-23T23:14:15.759Z,3.60
2022-10-23T23:16:47.488Z,2.97
2022-10-23T23:19:23.419Z,3.30
2022-10-23T23:21:55.740Z,3.30
2022-10-23T23:24:34.521Z,3.47
2022-10-23T23:27:03.011Z,3.60
2022-10-23T23:29:31.369Z,3.73
2022-10-23T23:32:01.152Z,3.37
2022-10-23T23:34:30.381Z,3.40
2022-10-23T23:36:59.378Z,3.10
2022-10-23T23:39:36.336Z,3.17
2022-10-23T23:42:04.917Z,3.03
2022-10-23T23:44:33.472Z,3.10
2022-10-23T23:47:04.343Z,3.03
2022-10-23T23:49:32.688Z,3.30
2022-10-23T23:52:00.993Z,3.00
2022-10-23T23:54:29.243Z,2.83
2022-10-23T23:56:59.023Z,2.67
2022-10-23T23:59:27.674Z,2.73
